sensor_id;sensor_type;location;lat;lon;timestamp;pressure;altitude;pressure_sealevel;temperature;humidity
56668;BME280;42542;48.360;10.958;2023-03-26T00:02:02;95664.56;;;6.82;87.09
56668;BME280;42542;48.360;10.958;2023-03-26T00:05:05;95665.56;;;6.81;86.66
56668;BME280;42542;48.360;10.958;2023-03-26T00:08:09;95669.03;;;6.81;86.96
56668;BME280;42542;48.360;10.958;2023-03-26T00:11:13;95666.53;;;6.80;86.79
56668;BME280;42542;48.360;10.958;2023-03-26T00:14:17;95660.09;;;6.82;86.99
56668;BME280;42542;48.360;10.958;2023-03-26T00:17:22;95663.72;;;6.81;86.59
56668;BME280;42542;48.360;10.958;2023-03-26T00:20:30;95667.09;;;6.83;86.61
56668;BME280;42542;48.360;10.958;2023-03-26T00:23:40;95661.59;;;6.85;86.95
56668;BME280;42542;48.360;10.958;2023-03-26T00:26:44;95654.09;;;6.80;86.68
56668;BME280;42542;48.360;10.958;2023-03-26T00:29:56;95667.75;;;6.85;86.56
56668;BME280;42542;48.360;10.958;2023-03-26T00:33:01;95662.28;;;6.87;86.13
56668;BME280;42542;48.360;10.958;2023-03-26T00:36:05;95667.75;;;6.85;85.97
56668;BME280;42542;48.360;10.958;2023-03-26T00:39:12;95666.91;;;6.85;85.24
56668;BME280;42542;48.360;10.958;2023-03-26T00:42:14;95675.28;;;6.90;85.45
56668;BME280;42542;48.360;10.958;2023-03-26T00:45:19;95663.66;;;6.91;84.85
56668;BME280;42542;48.360;10.958;2023-03-26T00:48:25;95658.50;;;6.89;84.39
56668;BME280;42542;48.360;10.958;2023-03-26T00:51:46;95665.84;;;6.95;84.29
56668;BME280;42542;48.360;10.958;2023-03-26T00:54:51;95654.38;;;6.95;84.03
56668;BME280;42542;48.360;10.958;2023-03-26T00:57:56;95656.56;;;6.99;83.71
56668;BME280;42542;48.360;10.958;2023-03-26T01:01:07;95658.25;;;7.00;83.39
56668;BME280;42542;48.360;10.958;2023-03-26T01:04:27;95666.91;;;7.02;83.35
56668;BME280;42542;48.360;10.958;2023-03-26T01:07:34;95659.63;;;7.04;83.38
56668;BME280;42542;48.360;10.958;2023-03-26T01:10:38;95659.44;;;7.06;83.02
56668;BME280;42542;48.360;10.958;2023-03-26T01:13:48;95666.28;;;7.09;83.60
56668;BME280;42542;48.360;10.958;2023-03-26T01:16:55;95668.78;;;7.10;83.70
56668;BME280;42542;48.360;10.958;2023-03-26T01:20:16;95659.28;;;7.07;83.92
56668;BME280;42542;48.360;10.958;2023-03-26T01:23:38;95654.97;;;7.06;83.34
56668;BME280;42542;48.360;10.958;2023-03-26T01:36:51;95624.03;;;6.97;82.95
56668;BME280;42542;48.360;10.958;2023-03-26T01:40:16;95623.84;;;6.99;83.94
56668;BME280;42542;48.360;10.958;2023-03-26T01:43:43;95632.28;;;6.94;84.49
56668;BME280;42542;48.360;10.958;2023-03-26T01:46:48;95620.31;;;6.90;84.25
56668;BME280;42542;48.360;10.958;2023-03-26T01:49:56;95617.28;;;6.85;84.38
56668;BME280;42542;48.360;10.958;2023-03-26T01:53:00;95612.28;;;6.82;84.98
56668;BME280;42542;48.360;10.958;2023-03-26T02:09:50;95604.47;;;6.63;86.16
56668;BME280;42542;48.360;10.958;2023-03-26T02:12:55;95595.84;;;6.61;86.01
56668;BME280;42542;48.360;10.958;2023-03-26T02:16:10;95593.31;;;6.59;86.54
56668;BME280;42542;48.360;10.958;2023-03-26T02:19:21;95585.28;;;6.51;86.95
56668;BME280;42542;48.360;10.958;2023-03-26T02:22:31;95586.81;;;6.54;86.64
56668;BME280;42542;48.360;10.958;2023-03-26T02:25:33;95575.66;;;6.50;86.93
56668;BME280;42542;48.360;10.958;2023-03-26T02:28:36;95590.59;;;6.51;86.93
56668;BME280;42542;48.360;10.958;2023-03-26T02:31:38;95589.06;;;6.49;86.87
56668;BME280;42542;48.360;10.958;2023-03-26T02:34:41;95580.31;;;6.48;87.12
56668;BME280;42542;48.360;10.958;2023-03-26T02:37:43;95583.94;;;6.47;87.18
56668;BME280;42542;48.360;10.958;2023-03-26T02:40:50;95574.44;;;6.45;87.33
56668;BME280;42542;48.360;10.958;2023-03-26T02:43:53;95561.47;;;6.42;87.56
56668;BME280;42542;48.360;10.958;2023-03-26T02:46:58;95568.16;;;6.46;87.54
56668;BME280;42542;48.360;10.958;2023-03-26T02:50:20;95559.50;;;6.44;87.86
56668;BME280;42542;48.360;10.958;2023-03-26T02:53:42;95560.63;;;6.41;87.75
56668;BME280;42542;48.360;10.958;2023-03-26T02:57:11;95557.31;;;6.39;87.73
56668;BME280;42542;48.360;10.958;2023-03-26T03:00:33;95556.78;;;6.36;88.41
56668;BME280;42542;48.360;10.958;2023-03-26T03:03:55;95544.13;;;6.30;88.00
56668;BME280;42542;48.360;10.958;2023-03-26T03:07:17;95535.09;;;6.22;88.46
56668;BME280;42542;48.360;10.958;2023-03-26T03:10:19;95531.59;;;6.22;88.81
56668;BME280;42542;48.360;10.958;2023-03-26T03:13:45;95514.47;;;6.16;88.65
56668;BME280;42542;48.360;10.958;2023-03-26T03:16:51;95517.41;;;6.13;88.60
56668;BME280;42542;48.360;10.958;2023-03-26T03:19:55;95526.53;;;6.11;88.80
56668;BME280;42542;48.360;10.958;2023-03-26T03:22:57;95520.81;;;6.06;88.69
56668;BME280;42542;48.360;10.958;2023-03-26T03:25:59;95522.13;;;6.02;89.17
56668;BME280;42542;48.360;10.958;2023-03-26T03:29:04;95524.41;;;5.97;89.75
56668;BME280;42542;48.360;10.958;2023-03-26T03:32:08;95526.38;;;5.95;89.88
56668;BME280;42542;48.360;10.958;2023-03-26T03:35:16;95526.00;;;5.90;89.66
56668;BME280;42542;48.360;10.958;2023-03-26T03:38:24;95521.78;;;5.87;89.66
56668;BME280;42542;48.360;10.958;2023-03-26T03:41:30;95516.47;;;5.87;89.88
56668;BME280;42542;48.360;10.958;2023-03-26T03:44:36;95513.81;;;5.87;89.79
56668;BME280;42542;48.360;10.958;2023-03-26T03:47:48;95507.84;;;5.85;89.99
56668;BME280;42542;48.360;10.958;2023-03-26T03:50:58;95508.66;;;5.85;90.26
56668;BME280;42542;48.360;10.958;2023-03-26T03:54:04;95499.22;;;5.83;90.15
56668;BME280;42542;48.360;10.958;2023-03-26T03:57:27;95499.34;;;5.81;90.18
56668;BME280;42542;48.360;10.958;2023-03-26T04:00:35;95487.06;;;5.80;90.62
56668;BME280;42542;48.360;10.958;2023-03-26T04:04:17;95473.97;;;5.79;90.47
56668;BME280;42542;48.360;10.958;2023-03-26T04:07:32;95463.97;;;5.73;90.94
56668;BME280;42542;48.360;10.958;2023-03-26T04:10:41;95473.28;;;5.77;91.24
56668;BME280;42542;48.360;10.958;2023-03-26T04:13:54;95472.44;;;5.76;91.04
56668;BME280;42542;48.360;10.958;2023-03-26T04:17:29;95474.28;;;5.76;91.61
56668;BME280;42542;48.360;10.958;2023-03-26T04:20:32;95471.78;;;5.74;91.18
56668;BME280;42542;48.360;10.958;2023-03-26T04:23:37;95474.72;;;5.71;91.38
56668;BME280;42542;48.360;10.958;2023-03-26T04:26:55;95470.38;;;5.70;91.45
56668;BME280;42542;48.360;10.958;2023-03-26T04:30:05;95462.91;;;5.66;91.54
56668;BME280;42542;48.360;10.958;2023-03-26T04:33:10;95460.94;;;5.68;91.61
56668;BME280;42542;48.360;10.958;2023-03-26T04:36:17;95448.81;;;5.65;91.34
56668;BME280;42542;48.360;10.958;2023-03-26T04:39:25;95443.50;;;5.65;92.20
56668;BME280;42542;48.360;10.958;2023-03-26T04:42:55;95442.53;;;5.66;92.35
56668;BME280;42542;48.360;10.958;2023-03-26T04:46:24;95446.16;;;5.65;92.06
56668;BME280;42542;48.360;10.958;2023-03-26T04:49:44;95436.84;;;5.61;92.20
56668;BME280;42542;48.360;10.958;2023-03-26T04:52:49;95436.00;;;5.61;92.01
56668;BME280;42542;48.360;10.958;2023-03-26T04:56:27;95429.19;;;5.58;92.38
56668;BME280;42542;48.360;10.958;2023-03-26T05:00:00;95422.06;;;5.59;92.33
56668;BME280;42542;48.360;10.958;2023-03-26T05:03:12;95419.56;;;5.57;92.46
56668;BME280;42542;48.360;10.958;2023-03-26T05:06:18;95422.06;;;5.59;92.32
56668;BME280;42542;48.360;10.958;2023-03-26T05:09:27;95417.75;;;5.58;92.60
56668;BME280;42542;48.360;10.958;2023-03-26T05:12:46;95401.84;;;5.58;93.05
56668;BME280;42542;48.360;10.958;2023-03-26T05:16:00;95393.88;;;5.58;92.74
56668;BME280;42542;48.360;10.958;2023-03-26T05:19:27;95388.59;;;5.58;92.66
56668;BME280;42542;48.360;10.958;2023-03-26T05:22:40;95394.56;;;5.60;93.21
56668;BME280;42542;48.360;10.958;2023-03-26T05:25:59;95400.72;;;5.60;93.30
56668;BME280;42542;48.360;10.958;2023-03-26T05:29:07;95391.94;;;5.60;93.25
56668;BME280;42542;48.360;10.958;2023-03-26T05:32:19;95384.47;;;5.63;93.58
56668;BME280;42542;48.360;10.958;2023-03-26T05:35:26;95369.41;;;5.64;93.00
56668;BME280;42542;48.360;10.958;2023-03-26T05:38:31;95360.63;;;5.63;93.18
56668;BME280;42542;48.360;10.958;2023-03-26T05:41:37;95349.03;;;5.64;92.84
56668;BME280;42542;48.360;10.958;2023-03-26T05:44:42;95354.88;;;5.68;92.74
56668;BME280;42542;48.360;10.958;2023-03-26T05:47:54;95344.09;;;5.69;92.83
56668;BME280;42542;48.360;10.958;2023-03-26T05:50:59;95348.44;;;5.70;92.95
56668;BME280;42542;48.360;10.958;2023-03-26T05:54:11;95352.13;;;5.77;93.81
56668;BME280;42542;48.360;10.958;2023-03-26T05:57:32;95355.31;;;5.81;94.04
56668;BME280;42542;48.360;10.958;2023-03-26T06:01:11;95351.34;;;5.85;94.00
56668;BME280;42542;48.360;10.958;2023-03-26T06:04:41;95338.78;;;5.87;93.90
56668;BME280;42542;48.360;10.958;2023-03-26T06:08:05;95333.88;;;5.92;94.25
56668;BME280;42542;48.360;10.958;2023-03-26T06:11:13;95334.25;;;5.97;94.16
56668;BME280;42542;48.360;10.958;2023-03-26T06:14:18;95331.97;;;6.02;94.25
56668;BME280;42542;48.360;10.958;2023-03-26T06:17:55;95324.34;;;6.07;94.02
56668;BME280;42542;48.360;10.958;2023-03-26T06:21:11;95321.91;;;6.14;93.70
56668;BME280;42542;48.360;10.958;2023-03-26T06:24:23;95314.34;;;6.19;93.55
56668;BME280;42542;48.360;10.958;2023-03-26T06:27:37;95306.88;;;6.22;93.20
56668;BME280;42542;48.360;10.958;2023-03-26T06:31:20;95311.41;;;6.30;93.50
56668;BME280;42542;48.360;10.958;2023-03-26T06:34:46;95303.78;;;6.35;93.99
56668;BME280;42542;48.360;10.958;2023-03-26T06:37:48;95310.31;;;6.41;94.29
56668;BME280;42542;48.360;10.958;2023-03-26T06:40:52;95303.66;;;6.45;93.70
56668;BME280;42542;48.360;10.958;2023-03-26T06:44:01;95304.69;;;6.52;94.35
56668;BME280;42542;48.360;10.958;2023-03-26T06:47:21;95307.06;;;6.55;94.25
56668;BME280;42542;48.360;10.958;2023-03-26T06:50:48;95297.44;;;6.62;94.43
56668;BME280;42542;48.360;10.958;2023-03-26T06:54:26;95290.66;;;6.68;95.11
56668;BME280;42542;48.360;10.958;2023-03-26T06:57:53;95297.31;;;6.72;94.97
56668;BME280;42542;48.360;10.958;2023-03-26T07:01:25;95288.88;;;6.76;94.65
56668;BME280;42542;48.360;10.958;2023-03-26T07:04:57;95286.72;;;6.80;94.52
56668;BME280;42542;48.360;10.958;2023-03-26T07:08:23;95280.59;;;6.87;95.07
56668;BME280;42542;48.360;10.958;2023-03-26T07:11:46;95280.09;;;6.92;94.82
56668;BME280;42542;48.360;10.958;2023-03-26T07:15:28;95285.25;;;6.93;95.57
56668;BME280;42542;48.360;10.958;2023-03-26T07:19:12;95271.66;;;6.96;95.82
56668;BME280;42542;48.360;10.958;2023-03-26T07:22:23;95264.16;;;7.00;96.34
56668;BME280;42542;48.360;10.958;2023-03-26T07:25:45;95251.72;;;7.00;96.58
56668;BME280;42542;48.360;10.958;2023-03-26T07:29:15;95229.81;;;6.98;97.17
56668;BME280;42542;48.360;10.958;2023-03-26T07:32:57;95235.47;;;7.03;97.05
56668;BME280;42542;48.360;10.958;2023-03-26T07:36:33;95226.66;;;7.03;96.95
56668;BME280;42542;48.360;10.958;2023-03-26T07:44:23;95198.94;;;7.05;97.49
56668;BME280;42542;48.360;10.958;2023-03-26T07:47:56;95195.94;;;7.09;97.95
56668;BME280;42542;48.360;10.958;2023-03-26T07:51:15;95186.13;;;7.09;98.58
56668;BME280;42542;48.360;10.958;2023-03-26T07:54:40;95185.00;;;7.12;98.45
56668;BME280;42542;48.360;10.958;2023-03-26T07:58:06;95168.88;;;7.13;98.76
56668;BME280;42542;48.360;10.958;2023-03-26T08:05:31;95154.25;;;7.17;99.45
56668;BME280;42542;48.360;10.958;2023-03-26T08:09:19;95139.63;;;7.21;98.85
56668;BME280;42542;48.360;10.958;2023-03-26T08:16:20;95136.63;;;7.24;97.97
56668;BME280;42542;48.360;10.958;2023-03-26T08:20:00;95132.81;;;7.27;98.19
56668;BME280;42542;48.360;10.958;2023-03-26T08:23:14;95119.53;;;7.27;97.46
56668;BME280;42542;48.360;10.958;2023-03-26T08:26:32;95121.38;;;7.26;96.74
56668;BME280;42542;48.360;10.958;2023-03-26T08:30:08;95130.47;;;7.32;97.78
56668;BME280;42542;48.360;10.958;2023-03-26T08:33:19;95139.78;;;7.36;98.59
56668;BME280;42542;48.360;10.958;2023-03-26T08:36:24;95127.66;;;7.33;98.68
56668;BME280;42542;48.360;10.958;2023-03-26T08:39:31;95130.31;;;7.41;98.93
56668;BME280;42542;48.360;10.958;2023-03-26T08:56:07;95119.63;;;7.50;99.83
56668;BME280;42542;48.360;10.958;2023-03-26T09:00:16;95122.97;;;7.52;100.00
56668;BME280;42542;48.360;10.958;2023-03-26T09:04:02;95107.84;;;7.52;100.00
56668;BME280;42542;48.360;10.958;2023-03-26T09:18:02;95089.59;;;7.49;99.74
56668;BME280;42542;48.360;10.958;2023-03-26T09:38:39;95095.75;;;7.41;100.00
56668;BME280;42542;48.360;10.958;2023-03-26T09:49:06;95076.94;;;7.43;100.00
56668;BME280;42542;48.360;10.958;2023-03-26T10:11:00;95023.13;;;7.49;100.00
56668;BME280;42542;48.360;10.958;2023-03-26T10:18:08;95002.56;;;7.66;100.00
56668;BME280;42542;48.360;10.958;2023-03-26T10:26:06;95018.28;;;7.83;100.00
56668;BME280;42542;48.360;10.958;2023-03-26T10:32:34;95024.41;;;7.92;100.00
56668;BME280;42542;48.360;10.958;2023-03-26T10:39:20;95020.09;;;7.91;100.00
56668;BME280;42542;48.360;10.958;2023-03-26T10:53:42;95017.56;;;7.98;100.00
56668;BME280;42542;48.360;10.958;2023-03-26T10:56:51;95013.06;;;7.98;100.00
56668;BME280;42542;48.360;10.958;2023-03-26T11:00:10;95009.31;;;8.07;100.00
56668;BME280;42542;48.360;10.958;2023-03-26T11:06:48;95012.72;;;8.24;100.00
56668;BME280;42542;48.360;10.958;2023-03-26T11:10:11;95016.69;;;8.28;100.00
56668;BME280;42542;48.360;10.958;2023-03-26T11:20:47;95004.59;;;8.48;100.00
56668;BME280;42542;48.360;10.958;2023-03-26T11:24:42;94987.06;;;8.54;100.00
56668;BME280;42542;48.360;10.958;2023-03-26T11:34:26;94958.69;;;8.61;100.00
56668;BME280;42542;48.360;10.958;2023-03-26T11:37:49;94959.81;;;8.67;100.00
56668;BME280;42542;48.360;10.958;2023-03-26T11:40:55;94960.63;;;8.67;99.12
56668;BME280;42542;48.360;10.958;2023-03-26T11:44:33;94966.22;;;8.72;97.30
56668;BME280;42542;48.360;10.958;2023-03-26T11:47:45;94966.53;;;8.77;96.96
56668;BME280;42542;48.360;10.958;2023-03-26T11:50:59;94963.16;;;8.83;96.31
56668;BME280;42542;48.360;10.958;2023-03-26T11:54:06;94954.41;;;8.89;94.93
56668;BME280;42542;48.360;10.958;2023-03-26T11:57:26;94951.50;;;8.99;96.71
56668;BME280;42542;48.360;10.958;2023-03-26T12:00:32;94952.69;;;9.11;96.35
56668;BME280;42542;48.360;10.958;2023-03-26T12:03:41;94940.09;;;9.20;96.53
56668;BME280;42542;48.360;10.958;2023-03-26T12:07:11;94944.03;;;9.24;94.04
56668;BME280;42542;48.360;10.958;2023-03-26T12:10:38;94955.00;;;9.29;92.55
56668;BME280;42542;48.360;10.958;2023-03-26T12:13:54;94953.03;;;9.23;89.83
56668;BME280;42542;48.360;10.958;2023-03-26T12:17:05;94960.22;;;9.22;88.21
56668;BME280;42542;48.360;10.958;2023-03-26T12:24:02;95022.44;;;9.29;87.82
56668;BME280;42542;48.360;10.958;2023-03-26T12:27:25;95038.81;;;9.12;81.74
56668;BME280;42542;48.360;10.958;2023-03-26T12:30:35;95031.53;;;8.91;78.36
56668;BME280;42542;48.360;10.958;2023-03-26T12:33:41;95030.84;;;8.51;79.94
56668;BME280;42542;48.360;10.958;2023-03-26T12:37:03;95039.63;;;8.29;80.84
56668;BME280;42542;48.360;10.958;2023-03-26T12:40:28;95024.59;;;8.13;81.97
56668;BME280;42542;48.360;10.958;2023-03-26T12:47:16;95051.19;;;7.91;85.38
56668;BME280;42542;48.360;10.958;2023-03-26T12:57:27;94994.75;;;7.33;88.24
56668;BME280;42542;48.360;10.958;2023-03-26T13:00:47;94953.78;;;7.20;88.77
56668;BME280;42542;48.360;10.958;2023-03-26T13:04:20;94943.00;;;7.13;89.24
56668;BME280;42542;48.360;10.958;2023-03-26T13:07:39;94950.47;;;7.10;90.82
56668;BME280;42542;48.360;10.958;2023-03-26T13:10:59;94952.97;;;7.11;92.15
56668;BME280;42542;48.360;10.958;2023-03-26T13:14:13;94958.13;;;7.13;92.73
56668;BME280;42542;48.360;10.958;2023-03-26T13:31:18;95027.72;;;5.95;93.59
56668;BME280;42542;48.360;10.958;2023-03-26T13:34:34;95006.19;;;5.90;95.49
56668;BME280;42542;48.360;10.958;2023-03-26T13:38:05;94951.47;;;5.88;96.70
56668;BME280;42542;48.360;10.958;2023-03-26T13:41:26;94950.97;;;5.93;96.94
56668;BME280;42542;48.360;10.958;2023-03-26T13:44:42;94928.41;;;6.05;98.10
56668;BME280;42542;48.360;10.958;2023-03-26T13:47:53;94907.72;;;6.17;97.34
56668;BME280;42542;48.360;10.958;2023-03-26T13:51:08;94895.06;;;6.35;98.38
56668;BME280;42542;48.360;10.958;2023-03-26T13:57:30;94876.13;;;6.62;97.86
56668;BME280;42542;48.360;10.958;2023-03-26T14:00:46;94869.72;;;6.80;98.57
56668;BME280;42542;48.360;10.958;2023-03-26T14:04:24;94871.34;;;6.97;98.66
56668;BME280;42542;48.360;10.958;2023-03-26T14:07:26;94863.47;;;7.12;98.43
56668;BME280;42542;48.360;10.958;2023-03-26T14:10:44;94847.41;;;7.28;99.73
56668;BME280;42542;48.360;10.958;2023-03-26T14:14:22;94835.34;;;7.48;99.51
56668;BME280;42542;48.360;10.958;2023-03-26T14:17:35;94841.94;;;7.75;100.00
56668;BME280;42542;48.360;10.958;2023-03-26T14:24:47;94840.69;;;8.23;98.65
56668;BME280;42542;48.360;10.958;2023-03-26T14:31:35;94840.22;;;8.57;96.99
56668;BME280;42542;48.360;10.958;2023-03-26T14:38:38;94819.34;;;8.90;96.80
56668;BME280;42542;48.360;10.958;2023-03-26T14:41:52;94814.72;;;9.13;96.50
56668;BME280;42542;48.360;10.958;2023-03-26T14:52:07;94812.28;;;9.97;93.59
56668;BME280;42542;48.360;10.958;2023-03-26T15:06:11;94786.75;;;10.37;92.06
56668;BME280;42542;48.360;10.958;2023-03-26T15:41:58;94794.88;;;10.56;92.24
56668;BME280;42542;48.360;10.958;2023-03-26T15:48:35;94788.81;;;10.76;90.78
56668;BME280;42542;48.360;10.958;2023-03-26T15:51:55;94786.63;;;10.92;91.37
56668;BME280;42542;48.360;10.958;2023-03-26T16:08:53;94781.44;;;10.78;87.45
56668;BME280;42542;48.360;10.958;2023-03-26T16:15:29;94805.16;;;10.60;83.54
56668;BME280;42542;48.360;10.958;2023-03-26T16:18:36;94798.72;;;10.47;84.09
56668;BME280;42542;48.360;10.958;2023-03-26T16:22:02;94804.81;;;10.35;83.88
56668;BME280;42542;48.360;10.958;2023-03-26T16:28:58;94800.81;;;10.03;83.39
56668;BME280;42542;48.360;10.958;2023-03-26T16:38:17;94798.44;;;9.65;83.87
56668;BME280;42542;48.360;10.958;2023-03-26T16:41:26;94800.78;;;9.54;83.82
56668;BME280;42542;48.360;10.958;2023-03-26T16:44:31;94800.28;;;9.44;84.04
56668;BME280;42542;48.360;10.958;2023-03-26T16:51:31;94812.84;;;9.28;84.41
56668;BME280;42542;48.360;10.958;2023-03-26T17:01:33;94806.81;;;9.05;83.74
56668;BME280;42542;48.360;10.958;2023-03-26T17:04:36;94804.44;;;8.95;83.78
56668;BME280;42542;48.360;10.958;2023-03-26T17:11:06;94812.34;;;8.89;84.53
56668;BME280;42542;48.360;10.958;2023-03-26T17:14:24;94814.28;;;8.80;83.63
56668;BME280;42542;48.360;10.958;2023-03-26T17:21:01;94836.09;;;8.69;83.82
56668;BME280;42542;48.360;10.958;2023-03-26T17:24:22;94841.31;;;8.63;84.08
56668;BME280;42542;48.360;10.958;2023-03-26T17:28:06;94844.91;;;8.55;84.63
56668;BME280;42542;48.360;10.958;2023-03-26T17:31:22;94863.97;;;8.44;85.98
56668;BME280;42542;48.360;10.958;2023-03-26T17:37:41;94871.75;;;8.08;89.22
56668;BME280;42542;48.360;10.958;2023-03-26T17:40:56;94857.06;;;7.97;90.38
56668;BME280;42542;48.360;10.958;2023-03-26T17:43:59;94857.13;;;7.89;90.59
56668;BME280;42542;48.360;10.958;2023-03-26T17:47:12;94869.50;;;7.82;91.20
56668;BME280;42542;48.360;10.958;2023-03-26T17:50:23;94864.72;;;7.77;92.95
56668;BME280;42542;48.360;10.958;2023-03-26T17:53:32;94878.69;;;7.71;92.31
56668;BME280;42542;48.360;10.958;2023-03-26T17:56:35;94865.13;;;7.66;92.83
56668;BME280;42542;48.360;10.958;2023-03-26T17:59:41;94869.84;;;7.56;93.00
56668;BME280;42542;48.360;10.958;2023-03-26T18:02:56;94882.50;;;7.54;93.94
56668;BME280;42542;48.360;10.958;2023-03-26T18:06:13;94882.53;;;7.46;94.54
56668;BME280;42542;48.360;10.958;2023-03-26T18:09:32;94894.88;;;7.39;94.58
56668;BME280;42542;48.360;10.958;2023-03-26T18:16:19;94897.22;;;7.34;95.42
56668;BME280;42542;48.360;10.958;2023-03-26T18:19:22;94894.25;;;7.29;94.45
56668;BME280;42542;48.360;10.958;2023-03-26T18:22:25;94891.28;;;7.24;94.21
56668;BME280;42542;48.360;10.958;2023-03-26T18:25:30;94892.66;;;7.20;95.30
56668;BME280;42542;48.360;10.958;2023-03-26T18:28:39;94899.97;;;7.18;95.40
56668;BME280;42542;48.360;10.958;2023-03-26T18:31:42;94901.13;;;7.15;95.95
56668;BME280;42542;48.360;10.958;2023-03-26T18:34:48;94892.69;;;7.12;95.77
56668;BME280;42542;48.360;10.958;2023-03-26T18:37:55;94899.16;;;7.09;95.24
56668;BME280;42542;48.360;10.958;2023-03-26T18:41:00;94893.06;;;7.00;95.45
56668;BME280;42542;48.360;10.958;2023-03-26T18:44:04;94882.78;;;6.97;94.89
56668;BME280;42542;48.360;10.958;2023-03-26T18:47:06;94888.28;;;6.96;94.43
56668;BME280;42542;48.360;10.958;2023-03-26T18:50:15;94878.34;;;6.90;94.14
56668;BME280;42542;48.360;10.958;2023-03-26T18:53:23;94886.63;;;6.87;93.86
56668;BME280;42542;48.360;10.958;2023-03-26T18:59:31;94890.84;;;6.73;94.33
56668;BME280;42542;48.360;10.958;2023-03-26T19:02:37;94903.78;;;6.76;94.60
56668;BME280;42542;48.360;10.958;2023-03-26T19:05:40;94901.47;;;6.73;94.88
56668;BME280;42542;48.360;10.958;2023-03-26T19:08:43;94903.66;;;6.70;95.06
56668;BME280;42542;48.360;10.958;2023-03-26T19:11:49;94900.16;;;6.69;95.25
56668;BME280;42542;48.360;10.958;2023-03-26T19:18:16;94910.63;;;6.62;95.53
56668;BME280;42542;48.360;10.958;2023-03-26T19:21:19;94908.13;;;6.61;95.22
56668;BME280;42542;48.360;10.958;2023-03-26T19:24:24;94895.88;;;6.60;95.53
56668;BME280;42542;48.360;10.958;2023-03-26T19:27:26;94891.06;;;6.55;96.11
56668;BME280;42542;48.360;10.958;2023-03-26T19:30:30;94900.50;;;6.58;95.85
56668;BME280;42542;48.360;10.958;2023-03-26T19:33:35;94894.53;;;6.56;96.32
56668;BME280;42542;48.360;10.958;2023-03-26T19:39:54;94893.53;;;6.49;97.89
56668;BME280;42542;48.360;10.958;2023-03-26T19:43:00;94889.44;;;6.46;97.63
56668;BME280;42542;48.360;10.958;2023-03-26T19:46:04;94891.91;;;6.48;98.18
56668;BME280;42542;48.360;10.958;2023-03-26T19:49:20;94907.00;;;6.47;97.82
56668;BME280;42542;48.360;10.958;2023-03-26T19:52:24;94907.00;;;6.47;97.85
56668;BME280;42542;48.360;10.958;2023-03-26T19:55:28;94905.19;;;6.48;97.94
56668;BME280;42542;48.360;10.958;2023-03-26T19:58:30;94911.50;;;6.47;98.46
56668;BME280;42542;48.360;10.958;2023-03-26T20:01:35;94906.50;;;6.44;97.96
56668;BME280;42542;48.360;10.958;2023-03-26T20:04:37;94907.84;;;6.40;98.53
56668;BME280;42542;48.360;10.958;2023-03-26T20:07:39;94902.03;;;6.28;97.75
56668;BME280;42542;48.360;10.958;2023-03-26T20:10:41;94905.88;;;6.25;98.12
56668;BME280;42542;48.360;10.958;2023-03-26T20:13:43;94913.50;;;6.28;98.58
56668;BME280;42542;48.360;10.958;2023-03-26T20:16:45;94916.50;;;6.25;98.33
56668;BME280;42542;48.360;10.958;2023-03-26T20:19:48;94920.47;;;6.21;99.17
56668;BME280;42542;48.360;10.958;2023-03-26T20:22:51;94926.13;;;6.18;99.21
56668;BME280;42542;48.360;10.958;2023-03-26T20:25:54;94923.63;;;6.17;98.89
56668;BME280;42542;48.360;10.958;2023-03-26T20:28:56;94917.50;;;6.16;99.08
56668;BME280;42542;48.360;10.958;2023-03-26T20:31:59;94910.84;;;6.12;98.69
56668;BME280;42542;48.360;10.958;2023-03-26T20:35:01;94922.78;;;6.08;98.48
56668;BME280;42542;48.360;10.958;2023-03-26T20:38:02;94914.00;;;6.08;98.95
56668;BME280;42542;48.360;10.958;2023-03-26T20:41:09;94918.63;;;6.06;98.13
56668;BME280;42542;48.360;10.958;2023-03-26T20:44:18;94913.34;;;6.06;98.41
56668;BME280;42542;48.360;10.958;2023-03-26T20:47:20;94915.50;;;6.02;98.06
56668;BME280;42542;48.360;10.958;2023-03-26T20:50:24;94907.56;;;6.02;98.12
56668;BME280;42542;48.360;10.958;2023-03-26T20:53:27;94894.13;;;5.96;97.18
56668;BME280;42542;48.360;10.958;2023-03-26T20:56:31;94891.63;;;5.94;97.75
56668;BME280;42542;48.360;10.958;2023-03-26T20:59:33;94898.91;;;5.92;97.82
56668;BME280;42542;48.360;10.958;2023-03-26T21:02:35;94901.22;;;5.87;97.29
56668;BME280;42542;48.360;10.958;2023-03-26T21:05:37;94903.53;;;5.82;97.18
56668;BME280;42542;48.360;10.958;2023-03-26T21:08:42;94911.13;;;5.77;96.44
56668;BME280;42542;48.360;10.958;2023-03-26T21:15:10;94923.25;;;5.71;96.52
56668;BME280;42542;48.360;10.958;2023-03-26T21:18:27;94930.50;;;5.69;95.95
56668;BME280;42542;48.360;10.958;2023-03-26T21:22:02;94935.84;;;5.61;95.89
56668;BME280;42542;48.360;10.958;2023-03-26T21:28:26;94928.50;;;5.55;95.89
56668;BME280;42542;48.360;10.958;2023-03-26T21:31:42;94925.69;;;5.48;96.22
56668;BME280;42542;48.360;10.958;2023-03-26T21:34:44;94928.03;;;5.52;96.49
56668;BME280;42542;48.360;10.958;2023-03-26T21:37:59;94924.00;;;5.47;96.12
56668;BME280;42542;48.360;10.958;2023-03-26T21:41:02;94924.19;;;5.46;96.38
56668;BME280;42542;48.360;10.958;2023-03-26T21:44:04;94925.50;;;5.42;95.83
56668;BME280;42542;48.360;10.958;2023-03-26T21:47:06;94925.66;;;5.40;95.89
56668;BME280;42542;48.360;10.958;2023-03-26T21:50:13;94932.81;;;5.40;95.52
56668;BME280;42542;48.360;10.958;2023-03-26T21:53:15;94924.19;;;5.38;95.84
56668;BME280;42542;48.360;10.958;2023-03-26T22:06:26;94939.91;;;5.31;95.32
56668;BME280;42542;48.360;10.958;2023-03-26T22:09:32;94929.28;;;5.31;95.23
56668;BME280;42542;48.360;10.958;2023-03-26T22:12:37;94931.44;;;5.28;95.03
56668;BME280;42542;48.360;10.958;2023-03-26T22:15:38;94922.31;;;5.22;95.18
56668;BME280;42542;48.360;10.958;2023-03-26T22:18:40;94925.47;;;5.26;96.26
56668;BME280;42542;48.360;10.958;2023-03-26T22:21:44;94925.63;;;5.24;95.75
56668;BME280;42542;48.360;10.958;2023-03-26T22:24:45;94927.44;;;5.24;95.76